Time;durP1;ratioP1;P1;durP2;ratioP2;P2;SDS_P1;SDS_P2;PMS_P1;PMS_P2;Temp;Humidity;BMP_temperature;BMP_pressure;BME280_temperature;BME280_humidity;BME280_pressure;Samples;Min_cycle;Max_cycle;Signal;HPM_P1;HPM_P2
2022/01/16 00:00:41;;;;;;;41.88;11.13;;;2.80;99.90;;;;;;4150234;28;20038;-81
2022/01/16 00:05:00;;;;;;;38.20;9.52;;;2.80;99.90;;;;;;4150436;28;20060;-82
2022/01/16 00:07:03;;;;;;;38.28;10.27;;;2.10;99.90;;;;;;4149981;28;20046;-82
2022/01/16 00:09:09;;;;;;;32.97;9.50;;;3.50;99.90;;;;;;4133285;28;20133;-83
2022/01/16 00:11:12;;;;;;;33.33;8.38;;;3.40;99.90;;;;;;4150410;28;20042;-83
2022/01/16 00:13:13;;;;;;;37.15;9.05;;;3.10;99.90;;;;;;4131294;28;20050;-83
2022/01/16 00:15:15;;;;;;;26.80;9.45;;;2.60;99.90;;;;;;4133375;28;20051;-83
2022/01/16 00:17:16;;;;;;;31.25;8.63;;;3.10;99.90;;;;;;4116547;28;20476;-83
2022/01/16 00:19:17;;;;;;;37.80;9.40;;;2.70;99.90;;;;;;4131926;28;20074;-83
2022/01/16 00:21:31;;;;;;;37.03;9.30;;;2.60;99.90;;;;;;4116697;28;20069;-83
2022/01/16 00:23:31;;;;;;;29.75;8.70;;;3.20;99.90;;;;;;4116699;28;20522;-83
2022/01/16 00:25:32;;;;;;;39.63;9.80;;;1.50;99.90;;;;;;4116340;28;20057;-82
2022/01/16 00:27:33;;;;;;;31.98;9.10;;;2.50;99.90;;;;;;4148833;28;20038;-82
2022/01/16 00:29:34;;;;;;;32.05;8.98;;;1.80;99.90;;;;;;4131769;28;20053;-82
2022/01/16 00:31:38;;;;;;;31.08;8.18;;;3.00;99.90;;;;;;4149442;28;20080;-83
2022/01/16 00:33:42;;;;;;;29.83;8.52;;;1.60;99.90;;;;;;4149502;28;20058;-82
2022/01/16 00:35:43;;;;;;;34.13;9.10;;;3.10;99.90;;;;;;4132878;28;20061;-82
2022/01/16 00:37:44;;;;;;;30.30;9.15;;;2.80;99.90;;;;;;4100409;29;20123;-82
2022/01/16 00:39:46;;;;;;;32.35;8.50;;;3.20;99.90;;;;;;4136010;28;20414;-82
2022/01/16 00:41:48;;;;;;;34.72;8.38;;;2.00;99.90;;;;;;4149067;28;20045;-82
2022/01/16 00:43:51;;;;;;;22.42;8.02;;;2.80;99.90;;;;;;4149984;28;20092;-82
2022/01/16 00:45:52;;;;;;;31.73;9.07;;;2.00;99.90;;;;;;4149799;28;20050;-82
2022/01/16 00:47:54;;;;;;;28.73;8.05;;;2.50;99.90;;;;;;4116749;28;20049;-82
2022/01/16 00:49:55;;;;;;;29.42;8.45;;;2.70;99.90;;;;;;4150227;28;20052;-83
2022/01/16 00:51:55;;;;;;;28.90;9.38;;;1.70;99.90;;;;;;4133111;28;20043;-82
2022/01/16 00:53:56;;;;;;;33.95;9.35;;;3.20;99.90;;;;;;4149941;28;20050;-82
2022/01/16 00:55:57;;;;;;;30.10;9.02;;;1.70;99.90;;;;;;4150469;28;20050;-82
2022/01/16 00:57:59;;;;;;;26.30;9.23;;;3.20;99.90;;;;;;4132180;28;20049;-82
2022/01/16 01:00:01;;;;;;;29.02;9.18;;;3.10;99.90;;;;;;4150123;28;20038;-82
2022/01/16 01:02:03;;;;;;;29.38;8.55;;;2.60;99.90;;;;;;4150150;28;20076;-82
2022/01/16 01:04:04;;;;;;;32.10;9.15;;;1.50;99.90;;;;;;4145552;28;20459;-82
2022/01/16 01:06:06;;;;;;;32.28;9.63;;;2.80;99.90;;;;;;4119317;28;20042;-82
2022/01/16 01:08:07;;;;;;;31.20;9.57;;;0.90;99.90;;;;;;4150481;28;20120;-82
2022/01/16 01:10:09;;;;;;;27.73;9.75;;;2.80;99.90;;;;;;4111222;28;20061;-82
2022/01/16 01:12:13;;;;;;;29.65;8.70;;;1.40;99.90;;;;;;4132482;28;20513;-82
2022/01/16 01:14:20;;;;;;;33.83;9.27;;;1.40;99.90;;;;;;4150638;28;20112;-82
2022/01/16 01:16:23;;;;;;;34.30;9.63;;;1.40;99.90;;;;;;4150420;28;20084;-82
2022/01/16 01:18:24;;;;;;;34.88;9.32;;;2.30;99.90;;;;;;4117049;28;20487;-82
2022/01/16 01:20:25;;;;;;;40.25;10.50;;;2.00;99.90;;;;;;4150459;28;20053;-82
2022/01/16 01:22:26;;;;;;;38.65;10.32;;;1.50;99.90;;;;;;4133195;28;20525;-82
2022/01/16 01:24:30;;;;;;;38.15;11.20;;;2.30;99.90;;;;;;4154193;28;20158;-82
2022/01/16 01:26:36;;;;;;;41.85;11.10;;;1.10;99.90;;;;;;4134455;28;20085;-82
2022/01/16 01:28:39;;;;;;;32.53;9.75;;;0.50;99.90;;;;;;4149551;28;20192;-82
2022/01/16 01:30:44;;;;;;;41.25;11.50;;;2.60;99.90;;;;;;4150337;28;20104;-82
2022/01/16 01:32:47;;;;;;;38.40;10.23;;;3.00;99.90;;;;;;4149908;28;20505;-82
2022/01/16 01:34:47;;;;;;;44.30;12.18;;;2.80;99.90;;;;;;4150669;28;20100;-82
2022/01/16 01:36:50;;;;;;;40.60;10.88;;;1.60;99.90;;;;;;4116432;28;20051;-82
2022/01/16 01:38:51;;;;;;;37.88;10.98;;;2.70;99.90;;;;;;4149905;28;20406;-82
2022/01/16 01:40:52;;;;;;;42.35;12.05;;;1.20;99.90;;;;;;4149994;28;20089;-82
2022/01/16 01:52:00;;;;;;;43.95;13.18;;;2.70;99.90;;;;;;4132411;28;20800;-83
2022/01/16 01:54:05;;;;;;;42.60;11.57;;;2.90;99.90;;;;;;4149618;28;20049;-83
2022/01/16 01:56:08;;;;;;;42.63;11.70;;;2.50;99.90;;;;;;4150139;28;20486;-83
2022/01/16 01:58:11;;;;;;;42.55;12.38;;;3.20;99.90;;;;;;4116812;28;20518;-82
2022/01/16 02:00:17;;;;;;;37.30;11.85;;;2.70;99.90;;;;;;4149623;28;20038;-83
2022/01/16 02:02:19;;;;;;;42.22;11.95;;;1.80;99.90;;;;;;4116555;28;20058;-83
2022/01/16 02:04:20;;;;;;;44.70;12.90;;;0.50;99.90;;;;;;4140155;28;20442;-82
2022/01/16 02:06:23;;;;;;;38.15;11.52;;;3.40;99.90;;;;;;4144173;28;20056;-83
2022/01/16 02:08:25;;;;;;;44.08;12.80;;;1.60;99.90;;;;;;4149947;28;20049;-82
2022/01/16 02:10:26;;;;;;;48.25;14.27;;;1.70;99.90;;;;;;4116484;28;20067;-82
2022/01/16 02:12:29;;;;;;;42.97;12.90;;;1.50;99.90;;;;;;4115866;28;20514;-82
2022/01/16 02:14:34;;;;;;;43.45;11.07;;;2.60;99.90;;;;;;4132379;28;20039;-82
2022/01/16 02:28:36;;;;;;;46.45;12.52;;;1.60;99.90;;;;;;4143738;28;20050;-82
2022/01/16 02:34:43;;;;;;;47.42;13.52;;;2.10;99.90;;;;;;4136680;28;20066;-82
2022/01/16 02:36:49;;;;;;;46.97;14.07;;;1.60;99.90;;;;;;4144851;28;20046;-82
2022/01/16 02:38:50;;;;;;;49.95;13.13;;;1.60;99.90;;;;;;4135549;28;20061;-82
2022/01/16 02:41:01;;;;;;;48.47;12.13;;;2.20;99.90;;;;;;4134980;28;20411;-82
2022/01/16 02:43:03;;;;;;;44.63;13.43;;;2.70;99.90;;;;;;4152632;28;20081;-83
2022/01/16 02:45:06;;;;;;;46.88;13.98;;;2.70;99.90;;;;;;4152829;28;20080;-82
2022/01/16 02:47:11;;;;;;;45.92;12.45;;;1.60;99.90;;;;;;4134549;28;20085;-82
2022/01/16 02:49:27;;;;;;;45.85;12.90;;;1.60;99.90;;;;;;4134964;28;20054;-82
2022/01/16 02:51:29;;;;;;;54.55;13.07;;;1.60;99.90;;;;;;4135598;28;20053;-82
2022/01/16 02:53:29;;;;;;;53.58;13.27;;;1.60;99.90;;;;;;4118936;28;20051;-82
2022/01/16 02:55:30;;;;;;;48.83;13.77;;;1.60;99.90;;;;;;4135609;28;20145;-82
2022/01/16 02:57:35;;;;;;;48.28;13.15;;;1.60;99.90;;;;;;4135326;28;20105;-82
2022/01/16 02:59:38;;;;;;;52.83;12.93;;;1.60;99.90;;;;;;4135385;28;20076;-82
2022/01/16 03:01:41;;;;;;;58.25;14.38;;;1.60;99.90;;;;;;4152654;28;20569;-83
2022/01/16 03:03:46;;;;;;;43.55;11.93;;;1.60;99.90;;;;;;4152689;28;20046;-82
2022/01/16 03:05:48;;;;;;;52.92;11.25;;;1.60;99.90;;;;;;4119884;28;20051;-82
2022/01/16 03:07:50;;;;;;;50.22;12.38;;;1.60;99.90;;;;;;4168363;28;20064;-82
2022/01/16 03:12:26;;;;;;;46.50;12.38;;;1.60;99.90;;;;;;4135800;28;20053;-83
2022/01/16 03:14:28;;;;;;;45.25;12.93;;;1.60;99.90;;;;;;4150442;28;20088;-82
2022/01/16 03:16:30;;;;;;;50.72;13.82;;;1.90;99.90;;;;;;4134186;28;20054;-82
2022/01/16 03:23:11;;;;;;;51.55;13.98;;;1.60;99.90;;;;;;4166347;28;20045;-82
2022/01/16 03:25:12;;;;;;;51.60;12.45;;;1.80;99.90;;;;;;4110527;28;20051;-82
2022/01/16 03:27:18;;;;;;;62.05;13.55;;;1.60;99.90;;;;;;4102715;29;20111;-82
2022/01/16 03:29:19;;;;;;;43.92;12.88;;;1.60;99.90;;;;;;4102708;28;20157;-82
2022/01/16 03:31:21;;;;;;;47.55;13.32;;;1.60;99.90;;;;;;4102336;28;20051;-82
2022/01/16 03:33:22;;;;;;;52.40;12.50;;;1.60;99.90;;;;;;4123479;28;20038;-82
2022/01/16 03:35:25;;;;;;;50.33;14.40;;;1.60;99.90;;;;;;4133321;28;20113;-82
2022/01/16 03:37:26;;;;;;;46.55;12.15;;;2.10;99.90;;;;;;4135689;28;20042;-82
2022/01/16 03:39:27;;;;;;;54.58;11.95;;;1.90;99.90;;;;;;4117721;28;20050;-82
2022/01/16 03:41:29;;;;;;;53.65;13.57;;;1.70;99.90;;;;;;4134136;28;20104;-82
2022/01/16 03:43:29;;;;;;;51.47;13.35;;;1.70;99.90;;;;;;4135272;28;20125;-82
2022/01/16 03:45:31;;;;;;;50.60;12.98;;;1.80;99.90;;;;;;4118608;28;20059;-82
2022/01/16 03:47:32;;;;;;;44.75;11.75;;;1.70;99.90;;;;;;4133966;28;20093;-82
2022/01/16 03:49:33;;;;;;;46.92;13.15;;;2.20;99.90;;;;;;4135203;28;20038;-82
2022/01/16 03:51:36;;;;;;;50.72;13.88;;;1.80;99.90;;;;;;4136264;28;20097;-82
2022/01/16 03:53:39;;;;;;;57.15;12.85;;;1.80;99.90;;;;;;4152316;28;20136;-82
2022/01/16 03:55:41;;;;;;;51.45;13.00;;;2.20;99.90;;;;;;4117951;28;20054;-83
2022/01/16 03:57:43;;;;;;;64.10;15.00;;;1.80;99.90;;;;;;4104136;28;20055;-82
2022/01/16 03:59:45;;;;;;;58.17;13.70;;;3.20;99.90;;;;;;4133414;28;20038;-82
2022/01/16 04:01:45;;;;;;;51.30;12.70;;;1.80;99.90;;;;;;4134964;28;20041;-82
2022/01/16 04:03:46;;;;;;;49.55;14.70;;;2.30;99.90;;;;;;4142591;28;20070;-82
2022/01/16 04:05:48;;;;;;;58.00;15.50;;;2.90;99.90;;;;;;4136042;28;20589;-82
2022/01/16 04:07:50;;;;;;;61.15;14.52;;;1.90;99.90;;;;;;4146385;28;20057;-82
2022/01/16 04:09:51;;;;;;;50.35;14.05;;;1.90;99.90;;;;;;4147258;28;20042;-83
2022/01/16 04:11:56;;;;;;;62.92;15.27;;;1.90;99.90;;;;;;4126579;28;20420;-83
2022/01/16 04:14:08;;;;;;;58.33;13.73;;;2.30;99.90;;;;;;4134583;28;20533;-83
2022/01/16 04:16:12;;;;;;;69.53;15.80;;;3.40;99.90;;;;;;4134850;28;20050;-83
2022/01/16 04:18:12;;;;;;;59.63;15.30;;;1.90;99.90;;;;;;4134695;28;20108;-83
2022/01/16 04:20:16;;;;;;;61.70;15.55;;;2.60;99.90;;;;;;4135125;28;20158;-83
2022/01/16 04:22:17;;;;;;;51.42;12.13;;;3.50;99.90;;;;;;4134947;28;20046;-83
2022/01/16 04:24:19;;;;;;;54.25;14.18;;;3.00;99.90;;;;;;4117406;28;20069;-83
2022/01/16 04:26:20;;;;;;;55.55;13.20;;;3.20;99.90;;;;;;4117621;28;20571;-83
2022/01/16 04:28:24;;;;;;;59.10;15.93;;;1.80;99.90;;;;;;4132993;28;20050;-83
2022/01/16 04:30:26;;;;;;;54.15;15.43;;;2.30;99.90;;;;;;4133661;28;20058;-83
2022/01/16 04:32:27;;;;;;;62.85;14.98;;;1.70;99.90;;;;;;4134609;28;20069;-83
2022/01/16 04:34:28;;;;;;;65.85;13.75;;;3.10;99.90;;;;;;4133097;28;20058;-82
2022/01/16 04:36:29;;;;;;;54.75;14.02;;;3.00;99.90;;;;;;4134713;28;20081;-83
2022/01/16 04:38:33;;;;;;;61.38;13.57;;;2.00;99.90;;;;;;4133348;28;20042;-83
2022/01/16 04:40:43;;;;;;;63.28;13.68;;;3.60;99.90;;;;;;4133120;28;20117;-83
2022/01/16 04:45:04;;;;;;;65.10;15.20;;;2.30;99.90;;;;;;4133847;28;20050;-82
2022/01/16 04:47:06;;;;;;;62.60;12.70;;;2.10;99.90;;;;;;4147770;28;20041;-82
2022/01/16 04:49:10;;;;;;;60.88;13.40;;;2.10;99.90;;;;;;4137977;28;20046;-83
2022/01/16 04:51:12;;;;;;;65.47;13.80;;;2.10;99.90;;;;;;4134033;28;20046;-82
2022/01/16 04:53:12;;;;;;;57.72;15.07;;;3.40;99.90;;;;;;4134841;28;20068;-82
2022/01/16 04:55:14;;;;;;;68.18;14.38;;;2.10;99.90;;;;;;4134025;28;20042;-82
2022/01/16 04:57:16;;;;;;;66.13;16.33;;;3.40;99.90;;;;;;4132185;28;20062;-82
2022/01/16 04:59:19;;;;;;;66.40;14.52;;;1.90;99.90;;;;;;4133682;28;20048;-83
2022/01/16 05:01:21;;;;;;;71.68;15.52;;;3.40;99.90;;;;;;4116477;28;20471;-82
2022/01/16 05:03:24;;;;;;;59.95;14.75;;;3.70;99.90;;;;;;4132716;28;20507;-82
2022/01/16 05:05:25;;;;;;;63.55;15.60;;;1.90;99.90;;;;;;4133419;28;20117;-82
2022/01/16 05:07:27;;;;;;;68.88;14.27;;;2.50;99.90;;;;;;4116237;28;20077;-83
2022/01/16 05:09:28;;;;;;;62.30;14.43;;;3.70;99.90;;;;;;4116371;28;20047;-83
2022/01/16 05:11:28;;;;;;;57.17;14.40;;;3.00;99.90;;;;;;4133294;28;20052;-82
2022/01/16 05:16:35;;;;;;;73.45;16.45;;;2.90;99.90;;;;;;4116245;28;20130;-82
2022/01/16 05:18:14;;;;;;;71.50;15.32;;;2.40;99.90;;;;;;4145429;28;20046;-82
2022/01/16 05:20:16;;;;;;;68.22;14.60;;;3.10;99.90;;;;;;4133681;28;20049;-82
2022/01/16 05:22:17;;;;;;;62.60;14.35;;;2.70;99.90;;;;;;4116550;28;20467;-82
2022/01/16 05:24:18;;;;;;;68.35;16.10;;;3.10;99.90;;;;;;4116638;28;20058;-83
2022/01/16 05:26:26;;;;;;;81.38;17.20;;;4.00;99.90;;;;;;4116555;28;20145;-82
2022/01/16 05:28:27;;;;;;;62.53;15.73;;;3.40;99.90;;;;;;4131908;28;20050;-82
2022/01/16 05:30:28;;;;;;;59.63;15.23;;;2.50;99.90;;;;;;4116881;28;20110;-83
2022/01/16 05:32:29;;;;;;;67.15;16.05;;;2.50;99.90;;;;;;4115794;28;20063;-82
2022/01/16 05:34:30;;;;;;;65.75;16.15;;;2.50;99.90;;;;;;4115716;28;20526;-82
2022/01/16 05:36:32;;;;;;;76.63;16.88;;;3.40;99.90;;;;;;4116046;28;20506;-83
2022/01/16 05:38:33;;;;;;;76.53;17.30;;;3.30;99.90;;;;;;4116229;28;20087;-82
2022/01/16 05:40:34;;;;;;;64.65;16.38;;;2.30;99.90;;;;;;4132207;28;20392;-82
2022/01/16 05:42:36;;;;;;;74.47;15.90;;;3.70;99.90;;;;;;4124060;28;20042;-83
2022/01/16 05:44:37;;;;;;;75.22;16.00;;;2.50;99.90;;;;;;4132109;28;20418;-83
2022/01/16 05:46:39;;;;;;;71.75;17.05;;;3.00;99.90;;;;;;4131970;28;20078;-82
2022/01/16 05:48:41;;;;;;;89.30;16.65;;;2.60;99.90;;;;;;4133867;28;20062;-82
2022/01/16 05:50:43;;;;;;;67.07;16.45;;;4.10;99.90;;;;;;4132202;28;20046;-82
2022/01/16 05:52:44;;;;;;;73.43;15.82;;;3.70;99.90;;;;;;4132718;28;20057;-84
2022/01/16 05:54:46;;;;;;;80.80;16.00;;;2.50;99.90;;;;;;4132028;28;20077;-82
2022/01/16 05:56:48;;;;;;;75.68;15.20;;;3.70;99.90;;;;;;4133065;28;20133;-82
2022/01/16 05:58:49;;;;;;;66.55;15.35;;;3.20;99.90;;;;;;4115891;28;20059;-83
2022/01/16 06:00:50;;;;;;;74.63;16.30;;;2.60;99.90;;;;;;4134971;28;20054;-83
2022/01/16 06:02:50;;;;;;;80.10;15.15;;;4.10;99.90;;;;;;4134743;28;20050;-83
2022/01/16 06:04:52;;;;;;;69.43;15.93;;;2.70;99.90;;;;;;4134023;28;20121;-83
2022/01/16 06:06:53;;;;;;;80.53;16.52;;;3.00;99.90;;;;;;4134506;28;20050;-83
2022/01/16 06:08:53;;;;;;;70.95;14.82;;;3.10;99.90;;;;;;4135782;28;20053;-83
2022/01/16 06:10:54;;;;;;;70.22;15.43;;;3.70;99.90;;;;;;4135649;28;20046;-82
2022/01/16 06:12:55;;;;;;;76.13;16.67;;;3.60;99.90;;;;;;4136215;28;20149;-82
2022/01/16 06:14:56;;;;;;;89.50;16.45;;;3.70;99.90;;;;;;4118522;28;20055;-83
2022/01/16 06:16:58;;;;;;;78.57;16.08;;;3.70;99.90;;;;;;4133844;28;20470;-83
2022/01/16 06:18:59;;;;;;;88.05;18.92;;;2.90;99.90;;;;;;4135397;28;20053;-83
2022/01/16 06:21:00;;;;;;;82.03;15.95;;;2.90;99.90;;;;;;4118252;28;20515;-82
2022/01/16 06:23:02;;;;;;;77.93;17.60;;;4.20;99.90;;;;;;4147086;28;20061;-83
2022/01/16 06:25:03;;;;;;;76.82;17.52;;;4.10;99.90;;;;;;4128374;28;20423;-82
2022/01/16 06:27:04;;;;;;;68.55;16.85;;;2.80;99.90;;;;;;4118650;28;20043;-82
2022/01/16 06:29:05;;;;;;;81.07;16.40;;;2.70;99.90;;;;;;4119250;28;20059;-82
2022/01/16 06:31:07;;;;;;;79.20;15.70;;;2.90;99.90;;;;;;4130653;28;20046;-83
2022/01/16 06:33:09;;;;;;;86.28;18.40;;;4.40;99.90;;;;;;4133684;28;20104;-83
2022/01/16 06:35:14;;;;;;;88.43;19.05;;;2.90;99.90;;;;;;4135457;28;20599;-83
2022/01/16 06:37:14;;;;;;;82.22;17.80;;;3.70;99.90;;;;;;4117661;28;20050;-83
2022/01/16 06:39:15;;;;;;;74.60;16.35;;;3.70;99.90;;;;;;4117507;28;20089;-83
2022/01/16 06:41:16;;;;;;;82.78;16.23;;;2.90;99.90;;;;;;4135752;28;20092;-83
2022/01/16 06:43:17;;;;;;;80.20;16.73;;;3.30;99.90;;;;;;4133697;28;20050;-83
2022/01/16 06:45:18;;;;;;;88.80;17.98;;;3.30;99.90;;;;;;4135882;28;20042;-83
2022/01/16 06:47:19;;;;;;;78.20;18.35;;;3.40;99.90;;;;;;4132574;28;20089;-83
2022/01/16 06:49:20;;;;;;;90.10;17.90;;;4.00;99.90;;;;;;4133860;28;20407;-83
2022/01/16 06:51:24;;;;;;;89.82;19.70;;;4.20;99.90;;;;;;4117343;28;20050;-83
2022/01/16 06:53:25;;;;;;;74.68;17.23;;;4.60;99.90;;;;;;4134928;28;20050;-83
2022/01/16 06:55:25;;;;;;;83.13;18.23;;;3.00;99.90;;;;;;4133551;28;20412;-83
2022/01/16 06:57:26;;;;;;;85.32;19.60;;;3.20;99.90;;;;;;4134757;28;20534;-83
2022/01/16 06:59:28;;;;;;;76.22;18.45;;;4.30;99.90;;;;;;4117166;28;20054;-83
2022/01/16 07:01:29;;;;;;;77.85;17.27;;;3.30;99.90;;;;;;4134772;28;20400;-83
2022/01/16 07:03:29;;;;;;;65.60;16.67;;;3.60;99.90;;;;;;4134222;28;20117;-83
2022/01/16 07:05:30;;;;;;;74.78;16.55;;;3.80;99.90;;;;;;4117484;28;20046;-83
2022/01/16 07:07:32;;;;;;;78.38;19.25;;;4.60;99.90;;;;;;4134526;28;20043;-85
2022/01/16 07:09:33;;;;;;;82.57;17.50;;;4.50;99.90;;;;;;4117974;28;20050;-84
2022/01/16 07:11:35;;;;;;;86.28;18.92;;;4.00;99.90;;;;;;4134104;28;20475;-84
2022/01/16 07:13:36;;;;;;;79.13;18.88;;;3.90;99.90;;;;;;4134397;28;20047;-84
2022/01/16 07:15:38;;;;;;;81.47;18.15;;;3.20;99.90;;;;;;4117457;28;20086;-84
2022/01/16 07:17:39;;;;;;;85.82;17.92;;;3.40;99.90;;;;;;4133246;28;20411;-84
2022/01/16 07:19:40;;;;;;;65.00;16.45;;;5.00;99.90;;;;;;4117482;28;20046;-84
2022/01/16 07:21:41;;;;;;;82.75;20.65;;;4.50;99.90;;;;;;4134146;28;20061;-84
2022/01/16 07:23:46;;;;;;;85.03;19.70;;;3.90;99.90;;;;;;4135639;28;20050;-84
2022/01/16 07:25:48;;;;;;;80.75;20.02;;;3.40;99.90;;;;;;4117739;28;20043;-84
2022/01/16 07:27:49;;;;;;;86.00;18.90;;;5.00;99.90;;;;;;4135297;28;20479;-84
2022/01/16 07:29:52;;;;;;;76.20;18.35;;;3.70;99.90;;;;;;4134870;28;20043;-84
2022/01/16 07:31:53;;;;;;;78.32;18.92;;;4.80;99.90;;;;;;4117934;28;20062;-84
2022/01/16 07:33:55;;;;;;;73.68;17.92;;;5.10;99.90;;;;;;4116615;28;20058;-84
2022/01/16 07:35:56;;;;;;;84.28;18.52;;;4.40;99.90;;;;;;4134402;28;20090;-84
2022/01/16 07:37:57;;;;;;;86.63;20.10;;;3.70;99.90;;;;;;4134919;28;20034;-84
2022/01/16 07:39:58;;;;;;;76.13;19.08;;;3.70;99.90;;;;;;4134507;28;20040;-84
2022/01/16 07:42:00;;;;;;;62.22;17.20;;;3.70;99.90;;;;;;4116647;28;20050;-83
2022/01/16 07:44:01;;;;;;;85.40;18.83;;;5.20;99.90;;;;;;4117513;28;20066;-84
2022/01/16 07:46:02;;;;;;;59.13;17.08;;;3.80;99.90;;;;;;4123982;28;20081;-84
2022/01/16 07:48:04;;;;;;;67.50;18.02;;;3.80;99.90;;;;;;4104291;28;21237;-84
2022/01/16 07:50:07;;;;;;;70.95;19.10;;;3.80;99.90;;;;;;4117343;28;20520;-84
2022/01/16 07:52:08;;;;;;;78.40;19.67;;;3.90;99.90;;;;;;4116893;28;20082;-84
2022/01/16 07:54:08;;;;;;;68.07;17.85;;;4.70;99.90;;;;;;4134692;28;20105;-84
2022/01/16 07:56:09;;;;;;;63.85;17.48;;;4.40;99.90;;;;;;4133087;28;20508;-83
2022/01/16 07:58:10;;;;;;;57.05;18.05;;;4.00;99.90;;;;;;4134330;28;20073;-84
2022/01/16 08:00:12;;;;;;;66.40;17.77;;;4.00;99.90;;;;;;4118647;28;20050;-84
2022/01/16 08:02:13;;;;;;;62.53;16.58;;;4.00;99.90;;;;;;4134534;28;20073;-84
2022/01/16 08:04:16;;;;;;;59.15;18.05;;;4.60;99.90;;;;;;4135105;28;20043;-84
2022/01/16 08:06:17;;;;;;;53.60;17.05;;;4.40;99.90;;;;;;4138132;28;20056;-83
2022/01/16 08:08:17;;;;;;;58.80;17.58;;;4.10;99.90;;;;;;4146348;28;20058;-84
2022/01/16 08:10:19;;;;;;;61.75;16.67;;;4.60;99.90;;;;;;4119617;28;20046;-84
2022/01/16 08:12:19;;;;;;;58.60;17.25;;;5.50;99.90;;;;;;4132530;28;20050;-85
2022/01/16 08:14:21;;;;;;;55.42;15.52;;;4.20;99.90;;;;;;4133016;28;20042;-85
2022/01/16 08:16:22;;;;;;;54.72;15.38;;;4.30;99.90;;;;;;4132286;28;20407;-84
2022/01/16 08:18:23;;;;;;;48.95;15.05;;;5.60;99.90;;;;;;4110113;28;20043;-84
2022/01/16 08:20:24;;;;;;;46.38;15.02;;;4.80;99.90;;;;;;4115904;28;20057;-83
2022/01/16 08:22:25;;;;;;;45.47;14.85;;;5.30;99.90;;;;;;4122288;28;20078;-85
2022/01/16 08:24:27;;;;;;;47.67;15.98;;;4.30;99.90;;;;;;4130250;28;20064;-84
2022/01/16 08:26:27;;;;;;;57.05;16.73;;;5.90;99.90;;;;;;4113893;28;20099;-84
2022/01/16 08:28:28;;;;;;;47.50;15.32;;;4.90;99.90;;;;;;4130430;28;20046;-84
2022/01/16 08:30:29;;;;;;;58.15;15.95;;;5.10;99.90;;;;;;4126934;28;20073;-84
2022/01/16 08:32:30;;;;;;;52.00;16.73;;;5.30;99.90;;;;;;4133036;28;20060;-84
2022/01/16 08:34:30;;;;;;;48.75;14.70;;;5.40;99.90;;;;;;4144483;28;20096;-84
2022/01/16 08:36:31;;;;;;;46.53;14.77;;;4.50;99.90;;;;;;4149021;28;20045;-84
2022/01/16 08:38:33;;;;;;;46.03;15.35;;;4.60;99.90;;;;;;4149478;28;20041;-84
2022/01/16 08:40:34;;;;;;;41.67;14.15;;;4.60;99.90;;;;;;4115561;28;20110;-84
2022/01/16 08:42:37;;;;;;;41.85;13.75;;;5.50;99.90;;;;;;4149735;28;20084;-85
2022/01/16 08:44:38;;;;;;;49.72;14.85;;;4.60;99.90;;;;;;4132316;28;20125;-84
2022/01/16 08:46:39;;;;;;;43.92;14.63;;;5.70;99.90;;;;;;4133853;28;20495;-84
2022/01/16 08:48:40;;;;;;;48.00;14.10;;;5.00;99.90;;;;;;4122374;28;20070;-84
2022/01/16 08:50:41;;;;;;;44.88;14.40;;;5.90;99.90;;;;;;4099914;28;20047;-84
2022/01/16 08:52:43;;;;;;;36.08;12.77;;;4.80;99.90;;;;;;4142780;28;20056;-84
2022/01/16 08:54:44;;;;;;;43.05;14.27;;;4.80;99.90;;;;;;4131119;28;20056;-84
2022/01/16 08:56:45;;;;;;;36.38;13.27;;;6.20;99.90;;;;;;4148050;28;20093;-84
2022/01/16 08:58:46;;;;;;;36.22;13.15;;;6.10;99.90;;;;;;4131876;28;20128;-84
2022/01/16 09:00:48;;;;;;;35.65;14.88;;;5.60;99.90;;;;;;4148320;28;20046;-84
2022/01/16 09:02:49;;;;;;;33.92;12.30;;;4.90;99.90;;;;;;4149424;28;20042;-84
2022/01/16 09:04:50;;;;;;;45.67;13.50;;;5.60;99.90;;;;;;4131242;28;20061;-84
2022/01/16 09:06:51;;;;;;;38.20;13.45;;;4.50;99.90;;;;;;4147875;28;20065;-85
2022/01/16 09:08:53;;;;;;;37.83;12.88;;;6.40;99.90;;;;;;4122990;28;20039;-84
2022/01/16 09:10:54;;;;;;;36.00;12.25;;;6.30;99.90;;;;;;4142507;28;20041;-84
2022/01/16 09:12:55;;;;;;;36.45;12.52;;;5.80;99.90;;;;;;4125145;28;20054;-84
2022/01/16 09:14:57;;;;;;;36.70;13.60;;;5.50;99.90;;;;;;4116602;28;20051;-85
2022/01/16 09:16:58;;;;;;;41.50;12.93;;;5.80;99.90;;;;;;4149361;28;20045;-84
2022/01/16 09:19:02;;;;;;;41.30;13.45;;;6.60;99.90;;;;;;4151203;28;20053;-84
2022/01/16 09:21:03;;;;;;;41.30;12.70;;;6.50;99.90;;;;;;4149579;28;20053;-84
2022/01/16 09:23:06;;;;;;;37.47;13.98;;;5.10;99.90;;;;;;4135419;28;20054;-84
2022/01/16 09:25:08;;;;;;;30.98;11.68;;;5.40;99.90;;;;;;4118504;28;20145;-84
2022/01/16 09:27:09;;;;;;;35.00;13.80;;;5.20;99.90;;;;;;4149742;28;20042;-84
2022/01/16 09:29:10;;;;;;;38.38;12.68;;;6.60;99.90;;;;;;4150245;28;20101;-84
2022/01/16 09:31:16;;;;;;;32.17;12.25;;;5.80;99.90;;;;;;4143394;28;20042;-84
2022/01/16 09:33:17;;;;;;;39.13;12.05;;;6.60;99.90;;;;;;4167907;28;20049;-84
2022/01/16 09:35:19;;;;;;;32.67;12.20;;;5.30;99.90;;;;;;4153352;28;20402;-85
2022/01/16 09:37:21;;;;;;;54.00;13.73;;;6.30;99.90;;;;;;4154677;28;20045;-83
2022/01/16 09:39:24;;;;;;;38.22;12.18;;;6.60;99.90;;;;;;4164116;28;20470;-84
2022/01/16 09:41:25;;;;;;;32.22;11.48;;;5.40;99.90;;;;;;4147692;28;20394;-84
2022/01/16 09:43:26;;;;;;;33.70;11.70;;;6.50;99.90;;;;;;4136075;28;20092;-84
2022/01/16 09:45:27;;;;;;;32.85;12.13;;;5.40;99.90;;;;;;4152001;28;20054;-84
2022/01/16 09:47:28;;;;;;;30.27;11.07;;;5.70;99.90;;;;;;4135034;28;20434;-85
2022/01/16 09:49:29;;;;;;;34.83;11.82;;;5.50;99.90;;;;;;4135285;28;20050;-84
2022/01/16 09:51:31;;;;;;;27.40;11.98;;;5.50;99.90;;;;;;4134314;28;20046;-84
2022/01/16 09:53:33;;;;;;;29.90;11.52;;;6.30;99.90;;;;;;4151847;28;20191;-84
2022/01/16 09:55:34;;;;;;;29.30;12.60;;;5.50;99.90;;;;;;4151959;28;20401;-84
2022/01/16 09:57:35;;;;;;;35.00;11.55;;;6.20;99.90;;;;;;4134180;28;20081;-84
2022/01/16 09:59:36;;;;;;;30.08;11.13;;;6.10;99.90;;;;;;4134088;28;20039;-84
2022/01/16 10:01:40;;;;;;;36.92;11.43;;;5.60;99.90;;;;;;4150974;28;20103;-84
2022/01/16 10:03:46;;;;;;;25.58;10.48;;;6.80;99.90;;;;;;4151951;28;20042;-84
2022/01/16 10:05:51;;;;;;;32.13;11.57;;;5.60;99.90;;;;;;4152446;28;20064;-85
2022/01/16 10:07:54;;;;;;;26.08;10.55;;;6.90;99.90;;;;;;4134594;28;20124;-84
2022/01/16 10:10:25;;;;;;;34.35;12.18;;;6.10;99.90;;;;;;4133783;28;20145;-84
2022/01/16 10:12:26;;;;;;;31.52;12.18;;;6.00;99.90;;;;;;4122487;28;20058;-84
2022/01/16 10:14:37;;;;;;;34.65;11.10;;;5.90;99.90;;;;;;4118068;28;20090;-84
2022/01/16 10:16:40;;;;;;;29.25;10.80;;;6.80;99.90;;;;;;4152728;28;20391;-84
2022/01/16 10:18:42;;;;;;;24.33;11.25;;;6.40;99.90;;;;;;4118728;28;20051;-84
2022/01/16 10:20:49;;;;;;;35.83;11.77;;;5.40;99.90;;;;;;4152379;28;20049;-84
2022/01/16 10:22:59;;;;;;;34.20;11.98;;;5.80;99.90;;;;;;4118087;28;20050;-85
2022/01/16 10:25:02;;;;;;;31.70;11.60;;;5.60;99.90;;;;;;4149561;28;20065;-84
2022/01/16 10:27:09;;;;;;;37.33;11.93;;;7.20;99.90;;;;;;4153223;28;20072;-84
2022/01/16 10:29:16;;;;;;;32.47;11.63;;;6.50;99.90;;;;;;4151841;28;20054;-84
2022/01/16 10:31:25;;;;;;;30.67;10.95;;;5.90;99.90;;;;;;4151001;28;20081;-84
2022/01/16 10:33:32;;;;;;;34.10;11.50;;;5.90;99.90;;;;;;4148729;28;20157;-85
2022/01/16 10:35:37;;;;;;;34.60;11.73;;;5.90;99.90;;;;;;4116838;28;20054;-84
2022/01/16 10:37:47;;;;;;;31.50;11.55;;;6.00;99.90;;;;;;4132961;28;20046;-84
2022/01/16 10:39:59;;;;;;;31.45;11.27;;;6.00;99.90;;;;;;4153436;28;20041;-84
2022/01/16 10:42:20;;;;;;;35.50;11.07;;;6.00;99.90;;;;;;4144204;28;20061;-84
2022/01/16 10:44:34;;;;;;;30.50;11.43;;;6.10;99.90;;;;;;4133125;28;20508;-84
2022/01/16 10:46:35;;;;;;;31.27;11.00;;;7.30;99.90;;;;;;4125821;28;20065;-84
2022/01/16 10:48:36;;;;;;;35.50;10.70;;;6.10;99.90;;;;;;4140237;28;20042;-84
2022/01/16 10:50:40;;;;;;;30.50;10.02;;;7.00;99.90;;;;;;4139932;28;20043;-84
2022/01/16 10:52:54;;;;;;;26.02;10.05;;;6.10;99.90;;;;;;4127204;28;20050;-85
2022/01/16 10:54:56;;;;;;;29.88;10.23;;;;;;;;;;4130529;28;20050;-85
2022/01/16 10:56:57;;;;;;;30.15;11.77;;;6.20;99.90;;;;;;4145011;28;20057;-86
2022/01/16 10:58:59;;;;;;;29.88;10.70;;;7.40;99.90;;;;;;4147145;28;20037;-85
2022/01/16 11:01:03;;;;;;;26.98;10.20;;;6.30;99.90;;;;;;4140056;28;20053;-83
2022/01/16 11:03:08;;;;;;;30.05;10.43;;;6.60;99.90;;;;;;4146270;28;20038;-86
2022/01/16 11:05:18;;;;;;;32.55;9.90;;;6.80;99.90;;;;;;4145264;28;20061;-85
2022/01/16 11:07:18;;;;;;;26.58;10.10;;;6.40;99.90;;;;;;4129607;28;20089;-85
2022/01/16 11:09:29;;;;;;;30.67;9.23;;;6.50;99.90;;;;;;4133924;28;20499;-85